Monkton, Maryland
Current Conditions -  °F | °C
As of 8:45 PM on Wednesday 17 Dec 2014 (Local Time) from KMTN Reporting Station
Few Clouds Few Clouds  
Wind Chill: 30°   Ceiling: Unl
Heat Index: 37°   Visibility: 10mi
Dew Point: 28°   Wind: 12mph
Humidity: 70%   Direction: 270°W
Pressure: 30.05"   Gusts: NA
Location:  39.58°N, 76.61°W
Report Text: KMTN 180145Z 27010KT 10SM FEW080 03/M02 A3005
Loading
Personal Weather Stations






























Interactive Weather Map New forecast layout! Learn more

10-Day Weather Forecast

Advertisements
Track Severe Weather on mobile